Terminal Aerodrome Forecast
Issued by NWS Paducah, KY

Current Version | Previous Version | Text Only | Print | Product List | Glossary On
Versions: 1 2 3 4 5 6 7 8 9 10 11 12
423
FTUS43 KPAH 221120
TAFEVV
TAF
KEVV 221120Z 2212/2312 06008KT P6SM SCT060 OVC110
     FM221700 09012KT P6SM VCSH SCT030 OVC060
     FM222100 09014G23KT P6SM -SHRA SCT015 OVC030
     FM230300 06013G21KT 4SM -SHRA SCT005 OVC015
     FM230900 05013G20KT 3SM -SHRA OVC006=

USA.gov is the U.S. government's official web portal to all federal, state and local government web resources and services.